Concord Municipal Airport Concord US
ICAO: KCON
IATA: CON
Category: Medium
Scheduled Services: No

Elevation: 342 ft
TransAlt. 18000 ft.

Airport Communications:
BOSTON APP/DEP:127.35
ASOS:132.32
CLNC DEL:133.65
ARNG OPS:32.1
BANGOR RDO:122.3
CTAF/UNICOM:122.7

KCON Zoom In..

If you have problems with the map follow the link
https://www.worldairports.se/pages/airport.php?
ICAO=KCON

Runways:

(A) RW 12 length 3200 ft width 75 ft
---- / hdg 121

(B) RW 17 length 6005 ft width 100 ft
---- / hdg 171

(C) RW 30 length 3200 ft width 75 ft
---- / hdg 301

(D) RW 35 length 6005 ft width 100 ft
ILS 108.70 / hdg 351

Location; KCON
Day. 22 / Time. 15.51 Zulu
* Altimeter: 30.30
* Temperature: 02° c. 35.6°f.
* Wind from: 300° Speed 12 kn with Gusts up to 20 kn.
Dewpoint: -07° c.
Visibility: 10 Statute Miles.
Clouds: Clear (automated report).

KCON 221551Z AUTO 30012G20KT 10SM CLR 02/M07 A3030 RMK AO2 SLP263 T00171072


Wind From 300°
Speed 12 kn.

 
 
jpsmedia.com for Web Design worldairports.se 2019   terms of use